KLDJ

Linden Airport

Linden, New Jersey, USA
METAR KLDJ 141655Z AUTO 15007KT 10SM BKN020 OVC025 10/06 A3039 RMK AO2 T00950055
Observed Flight Rules
Dec-14 @ 16:55 UTC (9 minutes ago) Marginal Visual Flight Rules
Wind Visibility Clouds
150° at 7 knots 10 miles
  • Broken at 2,000' AGL
  • Overcast at 2,500' AGL
Temperatures Readings
Current 10°C / 50°F
Dewpoint 6°C / 43°F
Humidity 76%
Altimeter 30.39" Hg
Pressure 1029 hPa
Elevation 7
METAR KLDJ 141655Z AUTO 15007KT 10SM BKN020 OVC025 10/06 A3039 RMK AO2 T00950055
Observed Flight Rules
Dec-14 @ 16:55 UTC
(9 minutes ago)
MVFR
Wind Visibility
150° at 7 knots 10 miles
Clouds
  • Broken at 2,000' AGL
  • Overcast at 2,500' AGL
Temperature Dewpoint
10°C / 50°F 6°C / 43°F
Humidity Altimeter Pressure
76% 30.39" Hg 1029 hPa